Bookmark and Share
Track history (hours):
 

Tina-c

Last reported at 2014-Apr-23 15:32 UTC. Time now 2014-Apr-24 05:47 UTC.
Position N 36°02' E 023°40'.

Length 99 m; draft 6.8 m.

Type: Cargo ship. MMSI: 235061987.

NotesDate/timePositionNaut miles runAvg speedWind from/ knotsBaromVisibWave heightAir tempDewpointWater temp
2014-Apr-23 15:32N 36°02' E 023°40'2110.5
2014-Apr-23 13:31N 36°01' E 024°06'1010.6
2014-Apr-23 12:33N 36°01' E 024°19'1110.9
2014-Apr-23 11:33N 36°01' E 024°32'1110.8
2014-Apr-23 10:33N 36°00' E 024°46'1110.9
2014-Apr-23 09:33N 35°60' E 024°59'1110.9
2014-Apr-23 08:33N 35°60' E 025°13'1211.7
2014-Apr-23 07:33N 35°60' E 025°27'1111.1
2014-Apr-23 06:33N 35°59' E 025°41'7 6.6
2014-Apr-23 05:33N 35°59' E 025°49'1211.4
2014-Apr-23 04:33N 35°58' E 026°03'1111.3
2014-Apr-23 03:33N 35°58' E 026°17'1111.2
2014-Apr-23 02:33N 35°58' E 026°31'1111.1
2014-Apr-23 01:32N 35°58' E 026°45'1111.1
2014-Apr-23 00:33N 35°58' E 026°59'1211.2
2014-Apr-22 23:30N 35°58' E 027°13'1111.2
2014-Apr-22 22:33N 35°55' E 027°26'  
2014-Apr-18 01:23N 33°22' E 031°09'1110.8
2014-Apr-18 00:21N 33°12' E 031°03'910.9
2014-Apr-17 23:33N 33°04' E 030°58'  

Dump ship's entire track history

sailing weather and tide predictions

Tina-c — 2APY2 — position and weather